Time;durP1;ratioP1;P1;durP2;ratioP2;P2;SDS_P1;SDS_P2;PMS_P1;PMS_P2;Temp;Humidity;BMP_temperature;BMP_pressure;BME280_temperature;BME280_humidity;BME280_pressure;Samples;Min_cycle;Max_cycle;Signal;HPM_P1;HPM_P2
2022/03/16 00:00:24;;;;;;;11.88;3.80;;;;;;;-1.60;49.13;101323.19;5027659;28;20453;-52
2022/03/16 00:02:50;;;;;;;8.52;4.05;;;;;;;-1.58;49.46;101330.91;5028838;28;20399;-53
2022/03/16 00:05:16;;;;;;;14.57;4.80;;;;;;;-1.60;49.57;101332.53;5028138;28;20037;-55
2022/03/16 00:07:42;;;;;;;10.23;4.18;;;;;;;-1.62;49.79;101331.59;5026650;28;20103;-53
2022/03/16 00:10:09;;;;;;;9.88;4.53;;;;;;;-1.75;49.50;101315.81;5018404;28;20045;-52
2022/03/16 00:12:36;;;;;;;12.38;3.92;;;;;;;-1.63;49.63;101340.06;5020415;28;20045;-55
2022/03/16 00:15:03;;;;;;;9.82;4.10;;;;;;;-1.64;49.60;101341.75;5059085;28;20095;-53
2022/03/16 00:17:29;;;;;;;11.00;5.13;;;;;;;-1.66;49.98;101340.78;5027712;28;20140;-54
2022/03/16 00:19:55;;;;;;;11.70;4.45;;;;;;;-1.82;49.65;101318.88;5027374;28;20120;-56
2022/03/16 00:22:20;;;;;;;9.68;4.20;;;;;;;-1.76;49.52;101331.91;5019899;28;20477;-51
2022/03/16 00:24:46;;;;;;;14.55;4.45;;;;;;;-1.73;49.62;101338.81;5027029;28;20135;-54
2022/03/16 00:27:12;;;;;;;8.88;4.28;;;;;;;-1.82;50.04;101320.56;5027507;28;20072;-55
2022/03/16 00:29:38;;;;;;;10.18;4.20;;;;;;;-1.89;49.72;101305.84;5025968;28;20484;-53
2022/03/16 00:32:04;;;;;;;11.10;4.28;;;;;;;-1.75;49.56;101337.88;5028524;28;20045;-54
2022/03/16 00:34:30;;;;;;;9.77;4.07;;;;;;;-1.76;49.89;101338.66;5015743;28;20045;-56
2022/03/16 00:36:56;;;;;;;8.50;4.05;;;;;;;-1.83;49.76;101322.25;5027973;28;20067;-55
2022/03/16 00:39:21;;;;;;;12.40;4.60;;;;;;;-1.76;49.88;101346.31;5026044;28;20041;-55
2022/03/16 00:41:47;;;;;;;8.20;3.90;;;;;;;-1.88;50.13;101322.84;5037103;28;20052;-54
2022/03/16 00:44:15;;;;;;;9.35;4.45;;;;;;;-1.79;50.10;101338.56;5010846;28;20038;-53
2022/03/16 00:46:41;;;;;;;9.93;4.63;;;;;;;-1.79;50.08;101348.75;5011732;28;20046;-57
2022/03/16 00:49:06;;;;;;;10.23;4.82;;;;;;;-1.79;50.05;101351.31;5027989;28;20049;-54
2022/03/16 00:51:32;;;;;;;12.43;4.65;;;;;;;-1.88;50.03;101336.47;5031354;28;20607;-52
2022/03/16 00:53:58;;;;;;;10.77;4.18;;;;;;;-1.93;50.24;101327.75;5012995;28;20045;-55
2022/03/16 00:56:24;;;;;;;11.65;5.07;;;;;;;-1.81;50.10;101347.81;5030159;28;20049;-55
2022/03/16 00:58:50;;;;;;;10.85;4.72;;;;;;;-1.80;50.11;101344.44;5010736;28;20061;-53
2022/03/16 01:01:16;;;;;;;12.80;5.03;;;;;;;-1.81;50.41;101355.44;5002622;28;20037;-54
2022/03/16 01:03:42;;;;;;;13.13;5.25;;;;;;;-1.90;50.20;101337.22;5029977;28;20497;-56
2022/03/16 01:06:17;;;;;;;11.98;4.65;;;;;;;-1.85;50.24;101356.13;5033669;28;20094;-51
2022/03/16 01:08:43;;;;;;;11.65;4.82;;;;;;;-1.84;50.59;101356.22;5032782;28;20051;-52
2022/03/16 01:11:11;;;;;;;12.05;4.70;;;;;;;-1.85;50.56;101348.50;5033418;28;20037;-52
2022/03/16 01:13:37;;;;;;;11.57;4.75;;;;;;;-1.84;50.84;101363.84;5031844;28;20067;-56
2022/03/16 01:16:03;;;;;;;11.10;4.65;;;;;;;-1.82;50.76;101361.34;5031536;28;20097;-53
2022/03/16 01:18:29;;;;;;;10.10;4.68;;;;;;;-1.81;50.52;101360.56;5032038;28;20051;-55
2022/03/16 01:20:55;;;;;;;9.98;4.60;;;;;;;-1.84;50.66;101353.66;5032679;28;20041;-53
2022/03/16 01:23:21;;;;;;;9.20;4.32;;;;;;;-1.85;50.66;101357.00;5033063;28;20045;-55
2022/03/16 01:25:46;;;;;;;11.68;5.35;;;;;;;-1.97;50.83;101343.75;5031793;28;20462;-53
2022/03/16 01:28:12;;;;;;;11.60;5.72;;;;;;;-1.93;50.88;101358.34;5032955;28;20425;-53
2022/03/16 01:30:38;;;;;;;15.15;6.40;;;;;;;-1.94;51.06;101361.72;5032283;28;20049;-53
2022/03/16 01:33:04;;;;;;;9.73;5.03;;;;;;;-2.04;50.86;101346.81;5032835;28;20120;-54
2022/03/16 01:35:30;;;;;;;10.77;5.78;;;;;;;-2.06;50.73;101348.44;5031481;28;20045;-54
2022/03/16 01:37:55;;;;;;;18.42;5.78;;;;;;;-1.96;51.01;101354.81;5030863;28;20041;-53
2022/03/16 01:40:21;;;;;;;12.60;5.25;;;;;;;-1.97;51.04;101361.56;5030861;28;20124;-53
2022/03/16 01:42:47;;;;;;;11.45;5.43;;;;;;;-1.99;50.93;101357.25;5029322;28;20444;-53
2022/03/16 01:45:13;;;;;;;10.35;5.28;;;;;;;-2.03;50.97;101357.88;5028632;28;20083;-51
2022/03/16 01:47:38;;;;;;;28.98;6.25;;;;;;;-2.03;50.93;101356.22;5028326;28;20136;-55
2022/03/16 01:50:05;;;;;;;17.50;5.38;;;;;;;-2.04;51.06;101367.22;5011676;28;20081;-54
2022/03/16 01:52:31;;;;;;;14.65;5.28;;;;;;;-2.05;51.00;101362.94;5011841;28;20037;-55
2022/03/16 01:54:58;;;;;;;11.70;5.18;;;;;;;-2.07;51.28;101362.00;5008557;28;20041;-54
2022/03/16 01:57:24;;;;;;;14.73;4.72;;;;;;;-2.18;51.37;101337.72;5031833;28;20049;-55
2022/03/16 01:59:51;;;;;;;13.43;4.95;;;;;;;-2.09;51.51;101366.13;5030035;28;20057;-52
2022/03/16 02:02:16;;;;;;;13.07;5.00;;;;;;;-2.12;51.64;101353.28;5030605;28;20114;-55
2022/03/16 02:04:43;;;;;;;9.80;5.13;;;;;;;-2.22;51.57;101336.72;5031402;28;20044;-54
2022/03/16 02:07:09;;;;;;;13.48;5.43;;;;;;;-2.16;51.46;101357.38;5032136;28;20046;-52
2022/03/16 02:09:35;;;;;;;13.48;5.07;;;;;;;-2.18;51.40;101353.00;5032186;28;20040;-56
2022/03/16 02:12:00;;;;;;;12.75;4.85;;;;;;;-2.20;51.31;101355.47;5030682;28;20053;-55
2022/03/16 02:14:27;;;;;;;17.48;5.65;;;;;;;-2.45;51.91;101329.75;5031133;28;20120;-54
2022/03/16 02:16:56;;;;;;;13.38;5.38;;;;;;;-2.28;51.86;101354.28;5031636;28;20033;-57
2022/03/16 02:19:22;;;;;;;12.73;5.13;;;;;;;-2.31;52.00;101359.25;5031318;28;20087;-54
2022/03/16 02:21:56;;;;;;;11.10;5.35;;;;;;;-2.32;51.92;101356.63;5022628;28;20049;-56
2022/03/16 02:24:23;;;;;;;11.35;5.32;;;;;;;-2.36;52.01;101352.22;5030225;28;20414;-55
2022/03/16 02:26:49;;;;;;;13.77;5.53;;;;;;;-2.38;51.80;101359.78;5031039;28;20516;-51
2022/03/16 02:29:15;;;;;;;10.73;5.55;;;;;;;-2.41;52.00;101359.66;5030596;28;20044;-53
2022/03/16 02:31:40;;;;;;;13.35;5.55;;;;;;;-2.43;52.03;101366.34;5030269;28;20058;-53
2022/03/16 02:34:06;;;;;;;12.98;5.78;;;;;;;-2.42;52.08;101367.22;5029648;28;20092;-52
2022/03/16 02:36:32;;;;;;;11.25;5.65;;;;;;;-2.45;52.19;101361.97;5030402;28;20413;-55
2022/03/16 02:38:58;;;;;;;11.82;5.32;;;;;;;-2.43;52.40;101358.72;5031473;28;20517;-53
2022/03/16 02:41:24;;;;;;;14.50;5.82;;;;;;;-2.44;52.17;101362.06;5030444;28;20091;-55
2022/03/16 02:43:50;;;;;;;9.93;5.57;;;;;;;-2.44;51.85;101371.38;5030849;28;20045;-52
2022/03/16 02:46:16;;;;;;;11.00;5.38;;;;;;;-2.51;52.56;101359.19;5030945;28;20428;-52
2022/03/16 02:48:41;;;;;;;12.18;5.78;;;;;;;-2.49;52.66;101368.63;5031408;28;20057;-54
2022/03/16 02:51:07;;;;;;;9.40;5.10;;;;;;;-2.50;52.55;101371.97;5013998;28;20133;-55
2022/03/16 02:53:33;;;;;;;16.58;5.93;;;;;;;-2.52;52.55;101372.72;5031090;28;20140;-54
2022/03/16 02:55:59;;;;;;;15.90;5.57;;;;;;;-2.56;52.40;101370.00;5030758;28;20045;-55
2022/03/16 02:58:25;;;;;;;13.02;6.63;;;;;;;-2.58;52.69;101376.72;5031111;28;20061;-54
2022/03/16 03:00:51;;;;;;;13.55;5.85;;;;;;;-2.57;52.68;101370.84;5031585;28;20128;-53
2022/03/16 03:03:17;;;;;;;13.07;6.10;;;;;;;-2.59;52.82;101374.97;5029580;28;20131;-54
2022/03/16 03:05:43;;;;;;;14.52;5.75;;;;;;;-2.60;52.75;101380.88;5027031;28;20588;-53
2022/03/16 03:08:09;;;;;;;19.75;5.97;;;;;;;-2.60;52.96;101380.88;5029515;28;20037;-56
2022/03/16 03:10:35;;;;;;;16.27;6.00;;;;;;;-2.62;52.96;101379.91;5022570;28;20091;-55
2022/03/16 03:13:02;;;;;;;15.35;6.20;;;;;;;-2.65;53.03;101386.53;5035170;28;20045;-56
2022/03/16 03:15:27;;;;;;;12.20;5.50;;;;;;;-2.64;53.00;101384.06;5008811;28;20517;-55
2022/03/16 03:17:53;;;;;;;16.17;5.90;;;;;;;-2.68;53.28;101368.59;5025955;28;20114;-52
2022/03/16 03:20:19;;;;;;;13.55;6.45;;;;;;;-2.63;53.33;101385.81;5013404;28;20037;-52
2022/03/16 03:22:45;;;;;;;12.57;5.63;;;;;;;-2.66;53.22;101385.66;5016616;28;20124;-54
2022/03/16 03:25:12;;;;;;;15.20;6.30;;;;;;;-2.68;53.45;101391.50;5030265;28;20059;-54
2022/03/16 03:27:38;;;;;;;13.52;6.20;;;;;;;-2.71;53.65;101388.81;5029291;28;20046;-53
2022/03/16 03:30:05;;;;;;;17.15;6.15;;;;;;;-2.71;53.40;101394.78;5031096;28;20038;-54
2022/03/16 03:32:31;;;;;;;14.40;6.28;;;;;;;-2.72;53.34;101393.00;5030336;28;20075;-54
2022/03/16 03:34:57;;;;;;;19.52;6.65;;;;;;;-2.85;53.25;101377.13;5027721;28;20049;-55
2022/03/16 03:37:28;;;;;;;14.23;6.55;;;;;;;-2.84;53.31;101382.28;5028281;28;20037;-55
2022/03/16 03:39:54;;;;;;;15.18;6.47;;;;;;;-2.71;53.46;101406.63;5015668;28;20048;-52
2022/03/16 03:42:20;;;;;;;19.00;6.47;;;;;;;-2.73;53.73;101410.78;5036462;28;20050;-54
2022/03/16 03:44:46;;;;;;;17.08;7.13;;;;;;;-2.85;53.59;101389.84;5058032;28;20526;-54
2022/03/16 03:47:12;;;;;;;17.58;6.70;;;;;;;-2.75;53.54;101417.47;5029562;28;20045;-55
2022/03/16 03:49:39;;;;;;;13.35;6.50;;;;;;;-2.75;53.54;101414.91;5022461;28;20069;-54
2022/03/16 03:52:06;;;;;;;14.25;6.35;;;;;;;-2.72;53.46;101410.00;5009580;28;20034;-56
2022/03/16 03:54:32;;;;;;;13.93;6.65;;;;;;;-2.74;53.87;101409.91;5030973;28;20666;-55
2022/03/16 03:56:58;;;;;;;18.92;7.00;;;;;;;-2.75;53.48;101408.16;5010806;28;20038;-51
2022/03/16 03:59:24;;;;;;;19.98;6.65;;;;;;;-2.71;53.31;101411.72;5012888;28;20053;-52
2022/03/16 04:01:50;;;;;;;15.93;6.90;;;;;;;-2.70;53.53;101413.47;5012363;28;20068;-57
2022/03/16 04:04:16;;;;;;;18.25;7.28;;;;;;;-2.68;53.25;101422.06;5042051;28;20803;-56
2022/03/16 04:06:42;;;;;;;15.18;6.70;;;;;;;-2.76;53.82;101398.78;5011658;28;20050;-56
2022/03/16 04:09:08;;;;;;;16.88;6.88;;;;;;;-2.64;53.48;101417.16;5026606;28;20513;-53
2022/03/16 04:11:34;;;;;;;27.83;6.75;;;;;;;-2.67;53.35;101424.66;5011718;28;20049;-53
2022/03/16 04:14:00;;;;;;;18.92;7.28;;;;;;;-2.68;53.48;101428.03;5027566;28;20037;-52
2022/03/16 04:16:26;;;;;;;18.55;7.22;;;;;;;-2.65;53.73;101432.38;5012357;28;20335;-53
2022/03/16 04:18:52;;;;;;;20.23;7.85;;;;;;;-2.63;54.05;101418.91;5029833;28;20045;-54
2022/03/16 04:21:18;;;;;;;19.45;6.72;;;;;;;-2.59;53.87;101432.66;5022421;28;20038;-57
2022/03/16 04:23:43;;;;;;;14.98;6.93;;;;;;;-2.51;54.16;101433.03;5025656;28;20045;-56
2022/03/16 04:26:09;;;;;;;13.80;6.65;;;;;;;-2.49;53.75;101426.31;5029104;28;20536;-54
2022/03/16 04:28:35;;;;;;;16.02;7.22;;;;;;;-2.42;53.49;101436.88;5030007;28;20045;-54
2022/03/16 04:31:01;;;;;;;18.60;6.93;;;;;;;-2.37;53.83;101437.94;5029114;28;20037;-54
2022/03/16 04:33:28;;;;;;;15.82;6.90;;;;;;;-2.34;53.49;101445.72;5029762;28;20557;-57
2022/03/16 04:35:54;;;;;;;16.20;6.68;;;;;;;-2.27;53.33;101442.66;5027785;28;20041;-55
2022/03/16 04:38:20;;;;;;;17.13;7.22;;;;;;;-2.24;53.28;101442.78;5029667;28;20453;-58
2022/03/16 04:40:46;;;;;;;16.27;6.93;;;;;;;-2.21;53.23;101447.16;5027469;28;20041;-54
2022/03/16 04:43:12;;;;;;;15.07;7.05;;;;;;;-2.18;52.88;101444.72;5028270;28;20041;-56
2022/03/16 04:45:39;;;;;;;18.80;7.32;;;;;;;-2.14;52.85;101450.03;5027202;28;20038;-55
2022/03/16 04:48:07;;;;;;;15.55;7.13;;;;;;;-2.09;52.97;101462.97;5012513;28;20120;-52
2022/03/16 04:50:39;;;;;;;17.83;7.50;;;;;;;-2.14;52.68;101449.16;5028763;28;20428;-52
2022/03/16 04:53:05;;;;;;;17.50;7.30;;;;;;;-2.05;52.27;101464.00;5028093;28;20037;-54
2022/03/16 04:55:32;;;;;;;14.73;7.53;;;;;;;-2.11;52.17;101438.25;5022960;28;20103;-55
2022/03/16 04:57:59;;;;;;;15.63;7.15;;;;;;;-1.98;52.21;101459.22;5027258;28;20577;-54
2022/03/16 05:00:25;;;;;;;18.45;7.78;;;;;;;-1.95;51.94;101459.38;5021404;28;20085;-56
2022/03/16 05:02:51;;;;;;;17.85;7.90;;;;;;;-1.92;52.15;101461.16;5019018;28;20068;-53
2022/03/16 05:05:17;;;;;;;20.63;8.48;;;;;;;-1.85;51.54;101465.75;5029023;28;20465;-54
2022/03/16 05:07:42;;;;;;;23.17;7.47;;;;;;;-1.83;51.69;101466.66;5029595;28;20167;-59
2022/03/16 05:10:11;;;;;;;18.60;8.52;;;;;;;-1.88;51.44;101450.31;5026716;28;20037;-58
2022/03/16 05:12:38;;;;;;;20.50;8.17;;;;;;;-1.73;51.54;101469.69;5028353;28;20452;-57
2022/03/16 05:15:06;;;;;;;19.08;7.35;;;;;;;-1.66;51.10;101462.31;5029170;28;20042;-55
2022/03/16 05:17:32;;;;;;;19.25;7.28;;;;;;;-1.60;51.09;101470.22;5027443;28;20041;-60
2022/03/16 05:19:57;;;;;;;21.67;7.90;;;;;;;-1.67;51.03;101446.13;5026915;28;20148;-58
2022/03/16 05:22:23;;;;;;;16.75;7.97;;;;;;;-1.49;50.82;101471.56;5027749;28;20041;-57
2022/03/16 05:24:49;;;;;;;14.40;7.78;;;;;;;-1.43;50.58;101465.06;5026944;28;20049;-57
2022/03/16 05:27:15;;;;;;;12.68;7.20;;;;;;;-1.37;50.18;101467.00;5006156;28;20711;-55
2022/03/16 05:29:40;;;;;;;18.20;7.35;;;;;;;-1.31;50.05;101463.00;5029651;28;20139;-52
2022/03/16 05:32:06;;;;;;;17.98;8.20;;;;;;;-1.24;49.84;101466.69;5014370;28;20539;-55
2022/03/16 05:34:32;;;;;;;17.00;7.70;;;;;;;-1.13;50.05;101467.13;5033268;28;20170;-56
2022/03/16 05:36:58;;;;;;;19.42;7.57;;;;;;;-1.00;49.72;101472.81;5006538;28;20132;-55
2022/03/16 05:39:24;;;;;;;15.20;7.22;;;;;;;-0.89;49.37;101474.09;5032865;28;20547;-53
2022/03/16 05:41:49;;;;;;;17.20;7.65;;;;;;;-0.80;49.23;101462.53;5026201;28;20045;-49
2022/03/16 05:44:15;;;;;;;29.10;9.27;;;;;;;-0.65;48.87;101475.88;5030958;28;20056;-48
2022/03/16 05:46:41;;;;;;;17.85;6.97;;;;;;;-0.50;48.82;101479.03;5028924;28;20033;-47
2022/03/16 05:49:06;;;;;;;15.13;7.32;;;;;;;-0.27;48.49;101480.81;5030924;28;20539;-50
2022/03/16 05:51:32;;;;;;;12.63;6.95;;;;;;;0.12;47.74;101485.63;5029643;28;20059;-47
2022/03/16 05:53:58;;;;;;;19.33;7.25;;;;;;;0.58;46.91;101477.91;5029990;28;20052;-51
2022/03/16 05:56:24;;;;;;;16.38;6.70;;;;;;;1.24;45.41;101486.97;5016797;28;20458;-49
2022/03/16 05:58:49;;;;;;;22.30;7.30;;;;;;;2.25;43.70;101481.47;5031660;28;20077;-50
2022/03/16 06:01:15;;;;;;;15.40;7.28;;;;;;;3.23;41.96;101480.66;5027887;28;20060;-48
2022/03/16 06:03:41;;;;;;;12.55;7.25;;;;;;;4.15;40.27;101480.97;5032118;28;20501;-51
2022/03/16 06:06:07;;;;;;;18.15;7.47;;;;;;;5.00;38.63;101487.75;5030908;28;20052;-45
2022/03/16 06:08:32;;;;;;;13.38;6.97;;;;;;;5.72;36.60;101469.09;5030280;28;20041;-51
2022/03/16 06:10:58;;;;;;;15.48;7.80;;;;;;;6.65;35.69;101484.91;5025747;28;20172;-50
2022/03/16 06:13:25;;;;;;;15.82;7.80;;;;;;;7.37;34.19;101485.56;5028560;28;20099;-52
2022/03/16 06:15:51;;;;;;;19.80;8.63;;;;;;;8.10;32.82;101476.53;5030134;28;20695;-52
2022/03/16 06:18:16;;;;;;;15.68;7.85;;;;;;;8.78;31.84;101488.88;5016647;28;20117;-52
2022/03/16 06:20:42;;;;;;;16.45;7.90;;;;;;;9.37;31.10;101488.88;5041189;28;20045;-51
2022/03/16 06:23:08;;;;;;;14.93;7.90;;;;;;;9.97;29.96;101485.31;5045097;28;20037;-49
2022/03/16 06:25:35;;;;;;;15.63;8.68;;;;;;;10.49;28.53;101483.41;5028255;28;20037;-49
2022/03/16 06:28:20;;;;;;;19.08;8.18;;;;;;;11.15;28.06;101483.81;5025411;28;20064;-48
2022/03/16 06:30:45;;;;;;;19.13;7.85;;;;;;;11.76;26.46;101491.13;5024058;28;20131;-51
2022/03/16 06:33:11;;;;;;;17.75;7.03;;;;;;;12.25;26.25;101489.69;5031621;28;20140;-53
2022/03/16 06:35:37;;;;;;;12.75;7.97;;;;;;;12.78;25.11;101489.84;5031634;28;20069;-52
2022/03/16 06:38:03;;;;;;;27.05;8.88;;;;;;;13.17;24.71;101484.06;5031469;28;20041;-47
2022/03/16 06:40:29;;;;;;;17.13;7.10;;;;;;;13.74;24.08;101489.16;5030511;28;20041;-50
2022/03/16 06:42:58;;;;;;;18.52;7.32;;;;;;;14.28;23.38;101492.47;5030782;28;20052;-47
2022/03/16 06:45:26;;;;;;;14.27;6.78;;;;;;;14.70;23.00;101493.31;5031267;28;20564;-48
2022/03/16 06:47:54;;;;;;;29.65;8.40;;;;;;;15.01;22.51;101491.72;5026647;28;20488;-50
2022/03/16 06:50:20;;;;;;;11.10;6.35;;;;;;;15.37;21.89;101507.44;5029522;28;20068;-50
2022/03/16 06:52:47;;;;;;;11.45;5.93;;;;;;;15.57;21.75;101500.81;5030773;28;20057;-53
2022/03/16 06:55:13;;;;;;;8.70;5.53;;;;;;;15.95;21.20;101501.56;5036510;28;20477;-46
2022/03/16 06:57:38;;;;;;;7.65;5.10;;;;;;;16.27;20.52;101505.91;5046161;28;20103;-48
2022/03/16 07:00:07;;;;;;;9.88;6.00;;;;;;;16.49;20.06;101494.72;5031263;28;20057;-47
2022/03/16 07:02:48;;;;;;;9.73;5.50;;;;;;;16.51;19.99;101502.56;5031936;28;20037;-49
2022/03/16 07:05:14;;;;;;;12.23;5.55;;;;;;;16.89;19.74;101518.06;5029954;28;20037;-46
2022/03/16 07:07:40;;;;;;;9.52;5.38;;;;;;;16.96;19.55;101497.69;5030367;28;20034;-47
2022/03/16 07:10:21;;;;;;;12.90;5.95;;;;;;;17.16;19.29;101516.34;5031078;28;20206;-48
2022/03/16 07:12:46;;;;;;;11.10;5.40;;;;;;;17.03;19.07;101495.72;5031264;28;20037;-49
2022/03/16 07:15:12;;;;;;;12.27;6.22;;;;;;;17.60;18.77;101506.13;5021835;28;20045;-42
2022/03/16 07:17:38;;;;;;;9.88;5.80;;;;;;;18.04;18.13;101513.31;5022590;28;20083;-44
2022/03/16 07:20:06;;;;;;;8.63;5.70;;;;;;;18.20;17.63;101505.72;5031330;28;20535;-44
2022/03/16 07:22:36;;;;;;;10.98;5.82;;;;;;;18.09;17.75;101506.13;5018170;28;20044;-40
2022/03/16 07:25:03;;;;;;;13.13;6.50;;;;;;;18.45;17.36;101514.44;5021909;28;20037;-40
2022/03/16 07:27:29;;;;;;;12.77;7.28;;;;;;;18.66;17.25;101489.06;5029402;28;20049;-41
2022/03/16 07:29:55;;;;;;;10.68;6.70;;;;;;;19.03;17.01;101501.66;5028467;28;20041;-40
2022/03/16 07:32:22;;;;;;;11.35;6.95;;;;;;;19.59;16.70;101503.75;5019871;28;20091;-44
2022/03/16 07:34:48;;;;;;;16.35;6.85;;;;;;;20.06;16.38;101502.53;5028784;28;20111;-43
2022/03/16 07:37:14;;;;;;;12.75;7.30;;;;;;;20.12;15.99;101482.91;5023017;28;20052;-43
2022/03/16 07:39:41;;;;;;;12.55;7.28;;;;;;;20.54;15.80;101498.63;5030716;28;20412;-47
2022/03/16 07:42:09;;;;;;;12.20;6.50;;;;;;;20.59;15.43;101504.53;5028845;28;20180;-43
2022/03/16 07:44:34;;;;;;;12.13;7.28;;;;;;;20.84;15.08;101504.22;5029632;28;20044;-41
2022/03/16 07:47:02;;;;;;;15.18;7.32;;;;;;;20.76;15.02;101494.03;5034487;28;20052;-43
2022/03/16 07:49:29;;;;;;;11.52;6.93;;;;;;;20.64;14.97;101490.19;5045132;28;20091;-43
2022/03/16 07:51:55;;;;;;;10.43;5.68;;;;;;;20.90;14.96;101494.22;4995235;28;20053;-41
2022/03/16 07:54:21;;;;;;;10.45;5.80;;;;;;;20.65;14.86;101491.03;5029666;28;20580;-42
2022/03/16 07:56:47;;;;;;;10.00;6.53;;;;;;;20.71;14.72;101493.41;5029345;28;20055;-42
2022/03/16 07:59:14;;;;;;;9.45;5.65;;;;;;;20.56;14.84;101495.00;5034115;28;20049;-40
2022/03/16 08:01:41;;;;;;;10.98;5.97;;;;;;;20.33;14.88;101492.53;5028990;28;20095;-42
2022/03/16 08:04:07;;;;;;;9.30;6.07;;;;;;;19.85;14.89;101491.13;5030148;28;20037;-41
2022/03/16 08:06:34;;;;;;;9.98;6.40;;;;;;;19.74;15.07;101471.41;5029402;28;20053;-41
2022/03/16 08:09:00;;;;;;;11.18;7.07;;;;;;;19.81;15.08;101489.56;5024444;28;20516;-40
2022/03/16 08:11:25;;;;;;;13.18;6.50;;;;;;;19.60;15.09;101482.56;5025070;28;20045;-42
2022/03/16 08:13:51;;;;;;;11.57;5.90;;;;;;;19.48;15.41;101482.22;5019247;28;20041;-41
2022/03/16 08:16:32;;;;;;;15.70;6.47;;;;;;;19.59;15.21;101491.41;5028579;28;20053;-42
2022/03/16 08:18:58;;;;;;;6.57;5.32;;;;;;;19.97;14.81;101484.47;5012050;28;20100;-42
2022/03/16 08:21:24;;;;;;;10.02;6.22;;;;;;;20.49;14.31;101496.19;5030321;28;20057;-51
2022/03/16 08:23:51;;;;;;;10.73;5.40;;;;;;;19.98;14.57;101483.53;5028919;28;20046;-42
2022/03/16 08:26:17;;;;;;;10.50;6.70;;;;;;;17.79;15.91;101502.78;5030529;28;20048;-39
2022/03/16 08:28:43;;;;;;;11.05;6.20;;;;;;;17.66;15.86;101490.13;5030247;28;20056;-40
2022/03/16 08:31:10;;;;;;;10.63;6.25;;;;;;;18.41;15.45;101486.50;5030841;28;20394;-41
2022/03/16 08:33:36;;;;;;;8.60;5.88;;;;;;;18.93;15.32;101488.00;5009604;28;20426;-41
2022/03/16 08:36:02;;;;;;;8.68;5.97;;;;;;;18.01;15.87;101492.38;5042260;28;20147;-41
2022/03/16 08:38:32;;;;;;;10.82;6.15;;;;;;;18.45;15.68;101492.50;5029165;28;20049;-39
2022/03/16 08:40:58;;;;;;;10.63;6.22;;;;;;;18.81;15.30;101485.84;5029420;28;20100;-40
2022/03/16 08:43:23;;;;;;;9.23;6.10;;;;;;;19.26;15.01;101485.72;5030034;28;20041;-39
2022/03/16 08:45:49;;;;;;;11.05;6.57;;;;;;;19.88;14.81;101491.03;5026817;28;20124;-39
2022/03/16 08:48:15;;;;;;;9.82;6.35;;;;;;;20.17;14.54;101494.13;5009097;28;20506;-39
2022/03/16 08:50:41;;;;;;;11.50;6.82;;;;;;;20.51;14.47;101475.00;5038567;28;20045;-40
2022/03/16 08:53:07;;;;;;;10.63;6.63;;;;;;;21.02;14.16;101491.00;5012316;28;20069;-40
2022/03/16 08:55:32;;;;;;;12.90;6.43;;;;;;;21.07;13.84;101472.25;5016896;28;20529;-40
2022/03/16 08:57:58;;;;;;;11.45;6.43;;;;;;;21.26;14.02;101482.78;5037496;28;20044;-41
2022/03/16 09:00:24;;;;;;;8.90;6.57;;;;;;;21.19;13.89;101476.97;5016169;28;20047;-41
2022/03/16 09:02:50;;;;;;;9.32;6.40;;;;;;;21.44;13.86;101492.47;5032330;28;20106;-39
2022/03/16 09:05:17;;;;;;;11.65;6.32;;;;;;;21.69;13.69;101484.97;5027432;28;20041;-40
2022/03/16 09:07:43;;;;;;;12.73;6.40;;;;;;;21.94;13.58;101493.38;5014241;28;20168;-40
2022/03/16 09:10:09;;;;;;;9.82;6.53;;;;;;;21.98;13.33;101494.91;5026109;28;20512;-40
2022/03/16 09:12:37;;;;;;;10.52;7.45;;;;;;;21.89;13.32;101486.56;5038142;28;20037;-39
2022/03/16 09:15:04;;;;;;;11.00;7.03;;;;;;;21.67;13.24;101496.59;5023085;28;20501;-38
2022/03/16 09:17:30;;;;;;;14.10;7.80;;;;;;;20.93;13.44;101483.50;5013929;28;20096;-39
2022/03/16 09:19:57;;;;;;;11.00;7.78;;;;;;;20.99;13.65;101477.91;5033481;28;20041;-39
2022/03/16 09:22:23;;;;;;;8.77;6.57;;;;;;;21.36;13.34;101490.19;5032988;28;20041;-39
2022/03/16 09:24:49;;;;;;;9.30;6.47;;;;;;;21.38;13.52;101485.69;5033010;28;20053;-39
2022/03/16 09:27:16;;;;;;;11.70;6.43;;;;;;;20.81;13.55;101491.16;5033454;28;20061;-40
2022/03/16 09:29:46;;;;;;;10.20;7.45;;;;;;;21.33;13.36;101478.91;5028992;28;20049;-39
2022/03/16 09:32:15;;;;;;;9.07;6.25;;;;;;;21.69;12.88;101484.13;5013568;28;20505;-39
2022/03/16 09:34:42;;;;;;;10.65;6.45;;;;;;;21.83;12.90;101478.94;5020881;28;20549;-39
2022/03/16 09:37:10;;;;;;;13.43;6.47;;;;;;;22.16;12.80;101482.50;5033111;28;20041;-40
2022/03/16 09:39:36;;;;;;;8.43;5.72;;;;;;;22.47;12.57;101478.19;5032510;28;20041;-40
2022/03/16 09:42:04;;;;;;;10.07;6.13;;;;;;;22.43;12.64;101482.81;5028799;28;20060;-40
2022/03/16 09:44:31;;;;;;;15.63;6.07;;;;;;;22.41;12.77;101476.72;5010312;28;20057;-39
2022/03/16 09:46:57;;;;;;;8.20;5.90;;;;;;;22.46;12.60;101473.81;5057241;28;20091;-41
2022/03/16 09:49:26;;;;;;;9.07;5.03;;;;;;;22.46;12.58;101461.41;5029034;28;20143;-40
2022/03/16 09:51:53;;;;;;;5.60;5.10;;;;;;;22.64;12.40;101483.41;5030267;28;20390;-41
2022/03/16 09:54:20;;;;;;;9.10;5.80;;;;;;;23.02;12.22;101487.44;5033028;28;20145;-40
2022/03/16 09:56:47;;;;;;;6.10;5.28;;;;;;;23.30;11.96;101476.06;5021225;28;20044;-41
2022/03/16 09:59:16;;;;;;;11.30;6.03;;;;;;;22.96;12.01;101473.66;5051456;28;20491;-40
2022/03/16 10:01:42;;;;;;;;;;;;;;;23.00;12.07;101476.06;5017397;28;20041;-47
2022/03/16 10:04:08;;;;;;;12.85;5.28;;;;;;;23.05;11.90;101457.22;5022052;28;19956;-41
2022/03/16 10:06:38;;;;;;;8.10;5.22;;;;;;;22.88;12.13;101475.88;5016137;28;20461;-43
2022/03/16 10:15:02;;;;;;;7.78;5.25;;;;;;;23.36;11.57;101481.00;5026659;28;20606;-41
2022/03/16 10:17:44;;;;;;;6.38;5.18;;;;;;;23.50;11.51;101478.41;5010986;28;20489;-42
2022/03/16 10:20:34;;;;;;;11.25;7.20;;;;;;;23.40;11.55;101482.53;5015900;28;20038;-41
2022/03/16 10:23:10;;;;;;;11.30;5.07;;;;;;;22.93;11.88;101481.78;5030765;28;20049;-42
2022/03/16 10:25:38;;;;;;;5.50;4.97;;;;;;;23.15;11.70;101479.59;5020489;28;20046;-42
2022/03/16 10:28:20;;;;;;;7.57;5.30;;;;;;;23.00;11.58;101483.16;5011307;28;20072;-43
2022/03/16 10:30:52;;;;;;;7.25;5.25;;;;;;;23.00;11.64;101478.69;5019097;28;20082;-42
2022/03/16 10:33:19;;;;;;;11.98;5.78;;;;;;;23.01;11.78;101450.38;5031566;28;20441;-41
2022/03/16 10:36:04;;;;;;;9.57;4.88;;;;;;;23.41;11.55;101484.25;5028823;28;20056;-43
2022/03/16 10:38:37;;;;;;;7.80;4.53;;;;;;;22.73;11.41;101482.91;5029282;28;20049;-41
2022/03/16 10:46:46;;;;;;;6.00;4.43;;;;;;;22.73;11.78;101480.25;5016411;28;20033;-43
2022/03/16 10:49:16;;;;;;;5.90;4.32;;;;;;;22.98;11.63;101464.66;5029855;28;20475;-42
2022/03/16 10:51:44;;;;;;;7.03;4.30;;;;;;;23.23;11.52;101472.94;5028601;28;20135;-42
2022/03/16 10:54:14;;;;;;;7.38;4.57;;;;;;;22.84;11.65;101471.69;5031320;28;20033;-42
2022/03/16 10:56:41;;;;;;;6.93;4.57;;;;;;;21.25;12.42;101470.53;5029931;28;20112;-42
2022/03/16 10:59:07;;;;;;;8.73;4.88;;;;;;;19.60;13.25;101468.53;5031294;28;20058;-43
2022/03/16 11:01:38;;;;;;;10.07;5.00;;;;;;;19.38;13.48;101463.28;5028232;28;20091;-42
2022/03/16 11:04:04;;;;;;;9.02;5.22;;;;;;;20.32;13.33;101463.53;5010523;28;20056;-42
2022/03/16 11:06:31;;;;;;;8.00;4.57;;;;;;;21.53;12.79;101463.72;5010241;28;20091;-41
2022/03/16 11:08:57;;;;;;;9.43;5.00;;;;;;;22.12;12.47;101462.41;5040477;28;20448;-42
2022/03/16 11:14:08;;;;;;;6.55;4.55;;;;;;;22.18;12.32;101451.50;5014266;28;20036;-43
2022/03/16 11:16:34;;;;;;;7.50;5.65;;;;;;;22.28;12.16;101451.84;5029695;28;20069;-42
2022/03/16 11:19:05;;;;;;;8.40;5.20;;;;;;;22.43;11.93;101450.13;5030698;28;20087;-42
2022/03/16 11:22:10;;;;;;;6.60;5.22;;;;;;;22.24;12.35;101445.81;5026295;28;20116;-42
2022/03/16 11:24:40;;;;;;;7.53;4.95;;;;;;;22.25;12.35;101438.75;5029615;28;20411;-41
2022/03/16 11:27:10;;;;;;;7.85;4.93;;;;;;;22.20;12.27;101449.59;5010519;28;20407;-42
2022/03/16 11:30:02;;;;;;;10.30;5.10;;;;;;;22.07;12.28;101430.00;5026117;28;20095;-42
2022/03/16 11:32:36;;;;;;;8.63;4.85;;;;;;;22.10;12.10;101447.53;5010562;28;20148;-44